Shorewood Beach, Washington
Current Conditions -  °F | °C
As of 7:00 AM on Sunday 21 Dec 2014 (Local Time) from KTIW Reporting Station
Overcast Overcast  
Wind Chill: 51°   Ceiling: 6000
Heat Index: 51°   Visibility: 10mi
Dew Point: 46°   Wind: 10mph
Humidity: 83%   Direction: 200°SSW
Pressure: 29.83"   Gusts: NA
Location:  47.2495°N, 122.621°W
Report Text: KTIW 211500Z AUTO 20009KT 10SM SCT017 SCT050 OVC060 11/08 A2983 RMK AO2 T01060078
Loading
Personal Weather Stations






























Interactive Weather Map New forecast layout! Learn more

10-Day Weather Forecast

Advertisements
Track Severe Weather on mobile